Time;durP1;ratioP1;P1;durP2;ratioP2;P2;SDS_P1;SDS_P2;PMS_P1;PMS_P2;Temp;Humidity;BMP_temperature;BMP_pressure;BME280_temperature;BME280_humidity;BME280_pressure;Samples;Min_cycle;Max_cycle;Signal;HPM_P1;HPM_P2
2022/05/13 00:01:28;;;;;;;9.68;1.70;;;12.40;64.90;;;;;;5074235;28;20048;-80
2022/05/13 00:03:55;;;;;;;9.02;1.85;;;12.40;65.10;;;;;;5074131;28;20051;-79
2022/05/13 00:06:22;;;;;;;6.70;1.90;;;12.40;65.10;;;;;;5074224;28;20913;-79
2022/05/13 00:08:49;;;;;;;9.93;1.70;;;12.40;65.20;;;;;;5074045;28;20085;-80
2022/05/13 00:11:16;;;;;;;7.78;1.70;;;12.30;65.20;;;;;;5074441;28;20067;-79
2022/05/13 00:13:43;;;;;;;9.55;1.70;;;12.30;65.30;;;;;;5074006;28;20048;-80
2022/05/13 00:16:10;;;;;;;6.07;1.42;;;12.30;65.40;;;;;;5073911;28;20494;-80
2022/05/13 00:18:37;;;;;;;7.57;1.80;;;12.20;65.40;;;;;;5073696;28;20044;-81
2022/05/13 00:21:04;;;;;;;8.25;1.95;;;12.20;65.40;;;;;;5074001;28;20048;-80
2022/05/13 00:26:17;;;;;;;6.90;1.70;;;12.20;65.50;;;;;;5071116;28;20106;-80
2022/05/13 00:28:44;;;;;;;10.77;2.38;;;12.20;65.60;;;;;;5072965;28;20105;-80
2022/05/13 00:31:12;;;;;;;8.10;2.10;;;12.10;65.70;;;;;;5073790;28;20564;-80
2022/05/13 00:33:39;;;;;;;7.85;1.77;;;12.10;65.80;;;;;;5102395;28;20057;-80
2022/05/13 00:36:06;;;;;;;8.20;1.70;;;12.10;65.90;;;;;;5061264;28;20071;-80
2022/05/13 00:38:33;;;;;;;10.85;1.90;;;12.00;66.00;;;;;;5072523;28;20044;-79
2022/05/13 00:41:00;;;;;;;8.93;2.20;;;12.00;66.10;;;;;;5074166;28;20391;-79
2022/05/13 00:43:43;;;;;;;5.95;1.70;;;12.00;66.20;;;;;;5073206;28;20049;-81
2022/05/13 00:46:10;;;;;;;9.15;1.80;;;12.00;66.30;;;;;;5073464;28;20052;-81
2022/05/13 00:48:37;;;;;;;7.80;1.83;;;11.90;66.40;;;;;;5073373;28;20098;-81
2022/05/13 00:51:05;;;;;;;7.50;1.92;;;11.90;66.50;;;;;;5073271;28;20122;-80
2022/05/13 00:53:34;;;;;;;9.35;2.00;;;11.90;66.60;;;;;;5072699;28;20125;-80
2022/05/13 00:56:01;;;;;;;6.55;1.77;;;11.90;66.70;;;;;;5073838;28;20101;-80
2022/05/13 00:58:29;;;;;;;8.48;1.75;;;11.90;66.80;;;;;;5071719;28;20056;-80
2022/05/13 01:00:56;;;;;;;6.88;1.63;;;11.90;66.90;;;;;;5073039;28;20413;-79
2022/05/13 01:03:23;;;;;;;9.63;1.95;;;11.80;67.10;;;;;;5073011;28;20498;-79
2022/05/13 01:05:55;;;;;;;8.75;1.95;;;11.80;67.10;;;;;;5073170;28;20041;-80
2022/05/13 01:08:41;;;;;;;12.05;2.35;;;11.80;67.30;;;;;;5073027;28;20052;-80
2022/05/13 01:11:12;;;;;;;10.88;2.40;;;11.70;67.40;;;;;;5069334;28;20044;-81
2022/05/13 01:13:53;;;;;;;11.02;2.33;;;11.70;67.40;;;;;;5073190;28;20068;-81
2022/05/13 01:16:20;;;;;;;7.82;2.13;;;11.70;67.50;;;;;;5072737;28;20109;-81
2022/05/13 01:18:47;;;;;;;10.82;2.40;;;11.70;67.60;;;;;;5072539;28;20132;-81
2022/05/13 01:21:21;;;;;;;7.18;1.60;;;11.60;67.60;;;;;;5072983;28;20056;-80
2022/05/13 01:23:50;;;;;;;8.18;2.10;;;11.70;67.70;;;;;;5057801;28;20040;-81
2022/05/13 01:26:22;;;;;;;8.55;2.05;;;11.60;67.80;;;;;;5072590;28;20106;-80
2022/05/13 01:28:52;;;;;;;8.25;1.90;;;11.60;67.90;;;;;;5072680;28;20131;-81
2022/05/13 01:31:29;;;;;;;7.25;1.67;;;11.60;68.00;;;;;;5072467;28;20102;-80
2022/05/13 01:33:58;;;;;;;8.63;1.90;;;11.60;68.10;;;;;;5072336;28;20055;-79
2022/05/13 01:36:26;;;;;;;11.50;2.05;;;11.50;68.20;;;;;;5072429;28;20055;-80
2022/05/13 01:38:55;;;;;;;10.90;2.10;;;11.50;68.30;;;;;;5072511;28;20530;-80
2022/05/13 01:41:23;;;;;;;10.23;1.85;;;11.50;68.30;;;;;;5072267;28;20052;-80
2022/05/13 01:43:51;;;;;;;8.30;2.13;;;11.50;68.40;;;;;;5072607;28;20110;-80
2022/05/13 01:46:20;;;;;;;9.90;2.22;;;11.50;68.40;;;;;;5072160;28;20048;-80
2022/05/13 01:48:47;;;;;;;9.80;2.13;;;11.50;68.50;;;;;;5072120;28;20044;-80
2022/05/13 01:51:15;;;;;;;9.52;2.00;;;11.50;68.50;;;;;;5072315;28;20048;-80
2022/05/13 01:53:43;;;;;;;7.43;1.88;;;11.50;68.60;;;;;;5056543;28;20045;-82
2022/05/13 01:56:10;;;;;;;9.40;2.50;;;11.40;68.60;;;;;;5083798;28;20075;-82
2022/05/13 01:58:55;;;;;;;8.18;1.95;;;11.40;68.70;;;;;;5070955;28;20043;-81
2022/05/13 02:01:22;;;;;;;7.25;2.00;;;11.40;68.70;;;;;;5072059;28;20044;-81
2022/05/13 02:03:48;;;;;;;8.52;2.00;;;11.40;68.80;;;;;;5071864;28;20076;-80
2022/05/13 02:06:24;;;;;;;6.97;1.95;;;11.40;68.80;;;;;;5071069;28;20117;-80
2022/05/13 02:08:54;;;;;;;10.77;2.22;;;11.40;68.80;;;;;;5071675;28;20476;-80
2022/05/13 02:11:22;;;;;;;9.55;2.28;;;11.40;68.90;;;;;;5071831;28;20461;-80
2022/05/13 02:13:50;;;;;;;8.95;2.33;;;11.30;68.90;;;;;;5072196;28;20052;-80
2022/05/13 02:16:17;;;;;;;10.18;2.10;;;11.30;68.90;;;;;;5071719;28;20106;-79
2022/05/13 02:18:44;;;;;;;8.75;2.10;;;11.30;69.00;;;;;;5071603;28;20044;-79
2022/05/13 02:21:12;;;;;;;8.90;2.33;;;11.30;69.00;;;;;;5071896;28;20052;-80
2022/05/13 02:23:39;;;;;;;8.88;2.30;;;11.30;69.00;;;;;;5071797;28;20105;-79
2022/05/13 02:26:10;;;;;;;11.38;2.35;;;11.20;69.00;;;;;;5072014;28;20094;-80
2022/05/13 02:28:38;;;;;;;7.40;1.83;;;11.30;69.10;;;;;;5071740;28;20106;-80
2022/05/13 02:31:06;;;;;;;6.28;1.88;;;11.20;69.10;;;;;;5071603;28;20063;-80
2022/05/13 02:33:34;;;;;;;11.43;2.50;;;11.20;69.10;;;;;;5071531;28;20072;-80
2022/05/13 02:36:02;;;;;;;8.98;2.15;;;11.20;69.10;;;;;;5071780;28;20113;-80
2022/05/13 02:38:29;;;;;;;11.82;3.08;;;11.20;69.10;;;;;;5071260;28;20072;-82
2022/05/13 02:41:12;;;;;;;9.50;2.30;;;11.10;69.10;;;;;;5072145;28;20052;-80
2022/05/13 02:43:49;;;;;;;8.25;2.22;;;11.10;69.10;;;;;;5071674;28;20052;-79
2022/05/13 02:46:19;;;;;;;8.25;2.13;;;11.10;69.20;;;;;;5071330;28;20457;-81
2022/05/13 02:48:46;;;;;;;9.02;2.45;;;11.10;69.20;;;;;;5071251;28;20075;-82
2022/05/13 02:51:14;;;;;;;9.48;2.47;;;11.00;69.20;;;;;;5071594;28;20045;-80
2022/05/13 02:56:27;;;;;;;11.60;2.20;;;11.00;69.30;;;;;;5069728;28;20048;-80
2022/05/13 02:58:54;;;;;;;7.00;1.67;;;11.00;69.30;;;;;;5072002;28;20094;-80
2022/05/13 03:01:21;;;;;;;6.28;2.17;;;10.90;69.30;;;;;;5071336;28;20135;-80
2022/05/13 03:03:49;;;;;;;6.07;2.08;;;10.90;69.30;;;;;;5071205;28;20430;-80
2022/05/13 03:06:18;;;;;;;9.63;2.17;;;10.90;69.30;;;;;;5071298;28;20588;-80
2022/05/13 03:08:46;;;;;;;13.73;2.60;;;10.90;69.40;;;;;;5071071;28;20044;-80
2022/05/13 03:11:14;;;;;;;11.52;2.25;;;10.90;69.40;;;;;;5071727;28;20056;-80
2022/05/13 03:13:41;;;;;;;10.07;2.65;;;10.90;69.40;;;;;;5070116;28;20059;-80
2022/05/13 03:16:11;;;;;;;8.73;2.15;;;10.90;69.50;;;;;;5071841;28;20048;-80
2022/05/13 03:18:41;;;;;;;8.38;2.30;;;10.90;69.50;;;;;;5074945;28;20052;-80
2022/05/13 03:21:09;;;;;;;9.65;2.28;;;10.80;69.50;;;;;;5075097;28;20479;-80
2022/05/13 03:23:36;;;;;;;7.53;2.15;;;10.80;69.60;;;;;;5074701;28;20102;-80
2022/05/13 03:26:04;;;;;;;7.68;1.80;;;10.80;69.60;;;;;;5075620;28;20499;-80
2022/05/13 03:28:31;;;;;;;8.90;2.42;;;10.80;69.60;;;;;;5074729;28;20110;-80
2022/05/13 03:30:57;;;;;;;8.63;2.13;;;10.80;69.70;;;;;;5074747;28;20048;-80
2022/05/13 03:33:24;;;;;;;6.75;1.80;;;10.80;69.70;;;;;;5074752;28;20052;-80
2022/05/13 03:35:52;;;;;;;8.05;2.05;;;10.70;69.80;;;;;;5074838;28;20101;-80
2022/05/13 03:38:19;;;;;;;8.02;2.15;;;10.70;69.80;;;;;;5074500;28;20503;-80
2022/05/13 03:41:04;;;;;;;6.47;1.73;;;10.70;69.90;;;;;;5074191;28;20052;-80
2022/05/13 03:43:31;;;;;;;8.73;2.58;;;10.70;69.90;;;;;;5074491;28;20510;-80
2022/05/13 03:46:17;;;;;;;6.75;1.77;;;10.70;69.90;;;;;;5074664;28;20052;-80
2022/05/13 03:48:44;;;;;;;8.35;2.05;;;10.70;70.00;;;;;;5074552;28;20049;-80
2022/05/13 03:51:11;;;;;;;11.18;2.50;;;10.70;70.00;;;;;;5074322;28;20048;-80
2022/05/13 03:53:38;;;;;;;9.23;2.08;;;10.70;70.00;;;;;;5073316;28;20502;-80
2022/05/13 03:56:07;;;;;;;9.10;2.35;;;10.60;70.00;;;;;;5075243;28;20518;-80
2022/05/13 03:58:34;;;;;;;7.68;1.90;;;10.70;70.10;;;;;;5074352;28;20079;-80
2022/05/13 04:01:02;;;;;;;13.07;2.70;;;10.60;70.10;;;;;;5074244;28;20452;-80
2022/05/13 04:03:29;;;;;;;17.92;2.60;;;10.60;70.10;;;;;;5074233;28;20136;-80
2022/05/13 04:09:00;;;;;;;6.72;1.90;;;10.60;70.10;;;;;;5058490;28;20102;-80
2022/05/13 04:11:30;;;;;;;7.10;1.98;;;10.60;70.10;;;;;;5072474;28;20062;-80
2022/05/13 04:16:43;;;;;;;7.30;1.92;;;10.50;70.20;;;;;;5074459;28;20044;-80
2022/05/13 04:19:11;;;;;;;7.97;2.25;;;10.50;70.20;;;;;;5073714;28;20434;-80
2022/05/13 04:21:40;;;;;;;10.27;2.45;;;10.50;70.30;;;;;;5073579;28;20041;-80
2022/05/13 04:27:11;;;;;;;11.47;2.80;;;10.50;70.50;;;;;;5061801;28;20395;-80
2022/05/13 04:29:38;;;;;;;6.78;1.92;;;10.50;70.50;;;;;;5071909;28;20571;-80
2022/05/13 04:32:05;;;;;;;10.95;2.00;;;10.50;70.60;;;;;;5074349;28;20105;-79
2022/05/13 04:34:51;;;;;;;9.95;2.50;;;10.50;70.70;;;;;;5073320;28;20061;-82
2022/05/13 04:37:18;;;;;;;7.70;1.92;;;10.50;70.70;;;;;;5073692;28;20056;-81
2022/05/13 04:39:52;;;;;;;7.72;1.80;;;10.40;70.80;;;;;;5073664;28;20094;-80
2022/05/13 04:45:07;;;;;;;9.43;2.30;;;10.40;70.90;;;;;;5073435;28;20090;-81
2022/05/13 04:50:21;;;;;;;9.95;2.03;;;10.40;71.00;;;;;;5070372;28;20090;-81
2022/05/13 04:52:48;;;;;;;7.63;2.00;;;10.40;71.10;;;;;;5073862;28;20578;-81
2022/05/13 04:55:15;;;;;;;8.27;1.67;;;10.40;71.10;;;;;;5073322;28;20082;-81
2022/05/13 04:57:41;;;;;;;9.23;2.45;;;10.50;71.10;;;;;;5073216;28;20044;-80
2022/05/13 05:00:09;;;;;;;10.70;2.40;;;10.50;71.20;;;;;;5073278;28;20052;-80
2022/05/13 05:02:37;;;;;;;6.40;1.90;;;10.40;71.20;;;;;;5073242;28;20045;-80
2022/05/13 05:05:04;;;;;;;8.15;1.98;;;10.50;71.30;;;;;;5073360;28;20055;-80
2022/05/13 05:07:31;;;;;;;10.32;2.03;;;10.50;71.30;;;;;;5073051;28;20548;-80
2022/05/13 05:09:57;;;;;;;8.15;2.35;;;10.50;71.40;;;;;;5072915;28;20098;-80
2022/05/13 05:12:24;;;;;;;6.10;1.70;;;10.50;71.40;;;;;;5072795;28;20497;-80
2022/05/13 05:14:51;;;;;;;11.02;2.20;;;10.50;71.50;;;;;;5072948;28;20464;-80
2022/05/13 05:17:18;;;;;;;5.30;1.98;;;10.50;71.50;;;;;;5073229;28;20110;-80
2022/05/13 05:19:45;;;;;;;7.72;2.08;;;10.50;71.60;;;;;;5071791;28;20109;-80
2022/05/13 05:22:12;;;;;;;8.88;2.33;;;10.50;71.70;;;;;;5072642;28;20045;-82
2022/05/13 05:24:39;;;;;;;7.03;1.80;;;10.50;71.70;;;;;;5072489;28;20094;-82
2022/05/13 05:27:24;;;;;;;9.57;1.75;;;10.50;71.80;;;;;;5072844;28;20044;-81
2022/05/13 05:29:51;;;;;;;9.48;1.92;;;10.50;71.90;;;;;;5058069;28;20048;-82
2022/05/13 05:32:18;;;;;;;9.18;2.45;;;10.60;71.80;;;;;;5072429;28;20040;-81
2022/05/13 05:34:45;;;;;;;7.20;2.35;;;10.60;71.90;;;;;;5071989;28;20056;-81
2022/05/13 05:37:12;;;;;;;7.10;1.88;;;10.60;72.00;;;;;;5072413;28;20404;-81
2022/05/13 05:39:39;;;;;;;6.85;1.88;;;10.60;72.10;;;;;;5072142;28;20502;-80
2022/05/13 05:42:08;;;;;;;6.45;1.95;;;10.60;72.10;;;;;;5072424;28;20045;-80
2022/05/13 05:44:35;;;;;;;7.07;2.10;;;10.60;72.20;;;;;;5072427;28;20106;-80
2022/05/13 05:47:03;;;;;;;7.93;2.00;;;10.60;72.30;;;;;;5072607;28;20603;-80
2022/05/13 05:49:29;;;;;;;8.77;2.00;;;10.70;72.40;;;;;;5072261;28;20052;-81
2022/05/13 05:51:56;;;;;;;8.13;2.00;;;10.60;72.60;;;;;;5072236;28;20044;-80
2022/05/13 05:57:31;;;;;;;9.85;2.25;;;10.70;72.80;;;;;;5071934;28;20430;-81
2022/05/13 06:00:00;;;;;;;8.80;2.10;;;10.80;72.90;;;;;;5072277;28;20048;-81
2022/05/13 06:02:27;;;;;;;11.73;2.33;;;10.80;73.00;;;;;;5071589;28;20048;-81
2022/05/13 06:04:54;;;;;;;10.85;1.98;;;10.80;73.20;;;;;;5070613;28;20048;-80
2022/05/13 06:07:21;;;;;;;8.32;1.90;;;10.80;73.30;;;;;;5071497;28;20044;-80
2022/05/13 06:09:49;;;;;;;15.50;2.47;;;10.90;73.50;;;;;;5074258;28;20106;-83
2022/05/13 06:12:16;;;;;;;10.18;2.65;;;10.90;73.60;;;;;;5072472;28;20464;-81
2022/05/13 06:14:43;;;;;;;6.68;2.10;;;10.90;73.80;;;;;;5069337;28;20040;-81
2022/05/13 06:17:28;;;;;;;10.55;2.30;;;11.00;73.90;;;;;;5071638;28;20046;-81
2022/05/13 06:19:54;;;;;;;7.65;1.80;;;11.00;74.00;;;;;;5074520;28;21047;-81
2022/05/13 06:22:21;;;;;;;8.85;1.92;;;11.10;74.10;;;;;;5072109;28;20388;-81
2022/05/13 06:24:48;;;;;;;9.05;2.25;;;11.20;74.20;;;;;;5072270;28;20055;-81
2022/05/13 06:30:02;;;;;;;8.32;2.70;;;11.20;74.40;;;;;;5070240;28;20052;-80
2022/05/13 06:32:29;;;;;;;11.30;2.17;;;11.30;74.50;;;;;;5070645;28;20045;-80
2022/05/13 06:34:56;;;;;;;12.50;3.13;;;11.40;74.60;;;;;;5074905;28;20040;-80
2022/05/13 06:37:23;;;;;;;10.95;2.45;;;11.40;74.70;;;;;;5071969;28;20457;-79
2022/05/13 06:39:50;;;;;;;14.48;3.08;;;11.50;74.80;;;;;;5071957;28;20045;-80
2022/05/13 06:42:17;;;;;;;11.27;2.17;;;11.50;74.90;;;;;;5071772;28;20509;-80
2022/05/13 06:44:44;;;;;;;20.00;3.03;;;11.60;75.00;;;;;;5067321;28;20414;-80
2022/05/13 06:47:11;;;;;;;7.50;2.20;;;11.60;75.00;;;;;;5072022;28;20078;-80
2022/05/13 06:49:38;;;;;;;12.25;2.58;;;11.70;75.10;;;;;;5071093;28;20052;-80
2022/05/13 06:52:05;;;;;;;10.65;2.50;;;11.70;75.10;;;;;;5074074;28;20048;-80
2022/05/13 06:54:52;;;;;;;9.85;2.22;;;11.80;75.20;;;;;;5076050;28;20086;-80
2022/05/13 06:57:19;;;;;;;13.65;2.53;;;11.90;75.20;;;;;;5076059;28;20105;-80
2022/05/13 06:59:45;;;;;;;10.07;2.40;;;11.90;75.30;;;;;;5072743;28;20087;-80
2022/05/13 07:02:17;;;;;;;9.77;2.53;;;12.00;75.40;;;;;;5082250;28;20056;-80
2022/05/13 07:04:45;;;;;;;14.98;2.90;;;12.00;75.50;;;;;;5076864;28;20070;-80
2022/05/13 07:07:13;;;;;;;12.32;3.00;;;12.10;75.50;;;;;;5075813;28;20052;-81
2022/05/13 07:09:40;;;;;;;15.40;3.03;;;12.10;75.60;;;;;;5075862;28;20044;-79
2022/05/13 07:12:09;;;;;;;7.15;2.50;;;12.20;75.70;;;;;;5074619;28;20051;-80
2022/05/13 07:14:37;;;;;;;9.35;2.20;;;12.30;75.70;;;;;;5072822;28;20084;-80
2022/05/13 07:17:05;;;;;;;12.43;2.72;;;12.40;75.80;;;;;;5079192;28;20044;-80
2022/05/13 07:19:32;;;;;;;10.30;2.88;;;12.40;75.80;;;;;;5075323;28;20052;-80
2022/05/13 07:22:00;;;;;;;10.68;2.60;;;12.40;75.80;;;;;;5075789;28;20048;-79
2022/05/13 07:24:28;;;;;;;10.88;2.50;;;12.40;75.70;;;;;;5075391;28;20403;-80
2022/05/13 07:26:55;;;;;;;13.35;2.53;;;12.50;75.70;;;;;;5072962;28;20049;-80
2022/05/13 07:29:22;;;;;;;11.55;2.22;;;12.50;75.70;;;;;;5075722;28;20048;-80
2022/05/13 07:31:49;;;;;;;11.05;2.17;;;12.60;75.70;;;;;;5077069;28;20052;-80
2022/05/13 07:34:16;;;;;;;9.55;2.67;;;12.70;75.70;;;;;;5075209;28;20114;-79
2022/05/13 07:36:43;;;;;;;11.88;2.80;;;12.70;75.60;;;;;;5075368;28;20593;-80
2022/05/13 07:41:56;;;;;;;9.38;2.13;;;12.90;75.50;;;;;;5058723;28;20049;-80
2022/05/13 07:44:22;;;;;;;9.57;2.30;;;12.90;75.40;;;;;;5075294;28;20053;-79
2022/05/13 07:47:09;;;;;;;14.52;2.20;;;12.90;75.30;;;;;;5077054;28;20098;-80
2022/05/13 07:49:39;;;;;;;7.07;2.10;;;13.00;75.30;;;;;;5075108;28;20457;-80
2022/05/13 07:52:07;;;;;;;10.48;2.60;;;13.00;75.20;;;;;;5075080;28;20457;-79
2022/05/13 07:54:33;;;;;;;11.65;2.35;;;13.20;75.10;;;;;;5075124;28;20093;-79
2022/05/13 07:57:01;;;;;;;8.68;2.10;;;13.20;75.10;;;;;;5073051;28;20049;-79
2022/05/13 07:59:28;;;;;;;10.43;1.90;;;13.30;75.00;;;;;;5074441;28;20098;-80
2022/05/13 08:01:55;;;;;;;9.57;2.60;;;13.40;74.80;;;;;;5077230;28;20052;-80
2022/05/13 08:04:22;;;;;;;9.35;1.83;;;13.40;74.70;;;;;;5075043;28;20049;-80
2022/05/13 08:06:50;;;;;;;10.80;1.88;;;13.60;74.60;;;;;;5074972;28;20044;-79
2022/05/13 08:09:18;;;;;;;6.68;2.20;;;13.70;74.40;;;;;;5074670;28;20048;-79
2022/05/13 08:11:45;;;;;;;9.68;1.90;;;13.70;74.30;;;;;;5070274;28;20044;-80
2022/05/13 08:14:12;;;;;;;11.15;2.28;;;13.90;74.10;;;;;;5078513;28;20048;-80
2022/05/13 08:16:39;;;;;;;9.15;2.50;;;13.90;73.90;;;;;;5076967;28;20101;-79
2022/05/13 08:19:06;;;;;;;8.77;1.90;;;14.00;73.70;;;;;;5074204;28;20051;-79
2022/05/13 08:21:33;;;;;;;11.20;2.20;;;14.00;73.40;;;;;;5074513;28;20044;-79
2022/05/13 08:24:01;;;;;;;10.68;1.95;;;14.10;73.20;;;;;;5072050;28;20056;-79
2022/05/13 08:26:28;;;;;;;9.88;2.10;;;14.20;72.90;;;;;;5073112;28;20530;-79
2022/05/13 08:28:54;;;;;;;10.68;2.08;;;14.30;72.60;;;;;;5078651;28;20106;-79
2022/05/13 08:31:21;;;;;;;7.35;1.92;;;14.30;72.50;;;;;;5074453;28;20094;-79
2022/05/13 08:33:48;;;;;;;13.10;2.40;;;14.30;72.30;;;;;;5074286;28;20422;-80
2022/05/13 08:36:16;;;;;;;6.03;1.50;;;14.40;72.10;;;;;;5074296;28;20097;-79
2022/05/13 08:38:44;;;;;;;9.55;1.98;;;14.40;71.90;;;;;;5054345;28;20049;-79
2022/05/13 08:41:26;;;;;;;9.85;2.42;;;14.40;71.80;;;;;;5085626;28;20052;-79
2022/05/13 08:44:01;;;;;;;11.25;2.00;;;14.40;71.60;;;;;;5078121;28;20421;-79
2022/05/13 08:46:40;;;;;;;6.63;1.92;;;14.40;71.60;;;;;;5075565;28;20060;-79
2022/05/13 08:49:35;;;;;;;13.93;2.20;;;14.50;71.50;;;;;;5073956;28;20482;-80
2022/05/13 08:55:10;;;;;;;12.50;2.05;;;14.60;71.20;;;;;;5073831;28;20048;-80
2022/05/13 08:57:43;;;;;;;7.50;1.98;;;14.60;71.10;;;;;;5075299;28;20040;-80
2022/05/13 09:00:18;;;;;;;11.60;1.90;;;14.60;71.00;;;;;;5073068;28;20536;-79
2022/05/13 09:03:10;;;;;;;8.10;1.70;;;14.70;70.80;;;;;;5055418;28;20090;-79
2022/05/13 09:05:53;;;;;;;8.18;1.92;;;14.70;70.70;;;;;;5071656;28;20049;-79
2022/05/13 09:08:21;;;;;;;7.95;1.52;;;14.80;70.50;;;;;;5085447;28;20445;-80
2022/05/13 09:11:23;;;;;;;7.80;1.90;;;14.80;70.40;;;;;;5074992;28;20465;-80
2022/05/13 09:14:05;;;;;;;6.55;1.50;;;14.80;70.30;;;;;;5076346;28;20510;-80
2022/05/13 09:16:41;;;;;;;10.45;1.92;;;14.90;70.20;;;;;;5074939;28;20048;-80
2022/05/13 09:19:15;;;;;;;7.85;1.60;;;14.90;70.00;;;;;;5073192;28;20064;-79
2022/05/13 09:21:43;;;;;;;9.35;1.67;;;14.90;69.80;;;;;;5073119;28;20037;-79
2022/05/13 09:24:11;;;;;;;8.20;1.70;;;14.90;69.70;;;;;;5074248;28;20048;-80
2022/05/13 09:26:38;;;;;;;11.57;1.90;;;15.00;69.50;;;;;;5069906;28;20049;-79
2022/05/13 09:29:12;;;;;;;8.60;1.60;;;15.10;69.40;;;;;;5076956;28;20052;-80
2022/05/13 09:31:46;;;;;;;8.35;1.65;;;15.10;69.30;;;;;;5072513;28;20056;-80
2022/05/13 09:34:26;;;;;;;10.05;1.60;;;15.20;69.20;;;;;;5074258;28;20098;-80
2022/05/13 09:37:07;;;;;;;9.30;1.90;;;15.20;69.00;;;;;;5073129;28;20044;-80
2022/05/13 09:39:43;;;;;;;6.10;1.52;;;15.30;68.70;;;;;;5072358;28;20539;-79
2022/05/13 09:42:26;;;;;;;5.00;1.67;;;15.40;68.40;;;;;;5072149;28;20048;-81
2022/05/13 09:45:14;;;;;;;9.13;1.73;;;15.40;68.20;;;;;;5055346;28;20078;-80
2022/05/13 09:47:44;;;;;;;7.53;1.27;;;15.50;68.10;;;;;;5053042;28;20044;-80
2022/05/13 09:50:33;;;;;;;7.13;1.23;;;15.50;67.90;;;;;;5084612;28;20135;-81
2022/05/13 09:53:22;;;;;;;7.05;1.55;;;15.60;67.70;;;;;;5075668;28;20074;-79
2022/05/13 09:55:52;;;;;;;6.78;1.60;;;15.70;67.40;;;;;;5071207;28;20056;-80
2022/05/13 09:58:26;;;;;;;6.50;1.55;;;15.80;67.20;;;;;;5072782;28;20468;-80
2022/05/13 10:01:07;;;;;;;6.50;1.42;;;15.90;67.10;;;;;;5072359;28;20051;-79
2022/05/13 10:03:38;;;;;;;7.72;1.90;;;15.90;66.90;;;;;;5074120;28;20500;-79
2022/05/13 10:06:08;;;;;;;9.35;2.03;;;16.00;66.60;;;;;;5071210;28;20072;-80
2022/05/13 10:08:50;;;;;;;7.43;1.50;;;16.10;66.40;;;;;;5069555;28;20099;-79
2022/05/13 10:14:23;;;;;;;6.70;1.50;;;16.20;65.90;;;;;;5076480;28;20057;-80
2022/05/13 10:16:52;;;;;;;5.35;1.20;;;16.30;65.70;;;;;;5075896;28;20506;-80
2022/05/13 10:19:42;;;;;;;7.25;1.42;;;16.30;65.50;;;;;;5072424;28;20049;-79
2022/05/13 10:22:09;;;;;;;7.07;1.65;;;16.40;65.30;;;;;;5072235;28;20052;-80
2022/05/13 10:24:47;;;;;;;5.63;1.27;;;16.40;65.20;;;;;;5071852;28;20501;-80
2022/05/13 10:27:31;;;;;;;8.70;1.88;;;16.40;65.00;;;;;;5071278;28;20477;-80
2022/05/13 10:30:33;;;;;;;5.43;1.42;;;16.50;64.80;;;;;;5055736;28;20045;-79
2022/05/13 10:33:25;;;;;;;6.93;1.58;;;16.60;64.60;;;;;;5056185;28;20514;-79
2022/05/13 10:36:03;;;;;;;7.93;1.67;;;16.60;64.40;;;;;;5054275;28;20041;-80
2022/05/13 10:39:00;;;;;;;5.78;1.40;;;16.70;64.20;;;;;;5070589;28;20056;-80
2022/05/13 10:41:43;;;;;;;7.72;1.65;;;16.80;64.00;;;;;;5084717;28;20052;-80
2022/05/13 10:44:38;;;;;;;6.57;1.40;;;16.80;63.90;;;;;;5083549;28;20090;-80
2022/05/13 10:47:18;;;;;;;5.15;1.48;;;16.90;63.70;;;;;;5055067;28;20450;-80
2022/05/13 10:49:46;;;;;;;7.72;1.50;;;16.90;63.50;;;;;;5072706;28;20054;-80
2022/05/13 10:52:34;;;;;;;4.68;1.30;;;17.00;63.30;;;;;;5071259;28;20052;-80
2022/05/13 10:55:20;;;;;;;4.35;1.35;;;17.10;63.10;;;;;;5071737;28;20461;-80
2022/05/13 10:58:05;;;;;;;7.68;1.27;;;17.20;62.80;;;;;;5071804;28;20048;-80
2022/05/13 11:01:17;;;;;;;5.65;1.70;;;17.30;62.40;;;;;;5071658;28;20044;-80
2022/05/13 11:03:59;;;;;;;6.03;1.25;;;17.40;62.00;;;;;;5032081;28;20475;-80
2022/05/13 11:07:01;;;;;;;5.60;1.17;;;17.40;61.90;;;;;;5032204;28;20111;-80
2022/05/13 11:09:59;;;;;;;7.15;1.55;;;17.40;61.70;;;;;;4973610;28;20101;-80
2022/05/13 11:12:46;;;;;;;6.55;1.88;;;17.50;61.40;;;;;;4973394;28;20054;-80
2022/05/13 11:15:37;;;;;;;7.38;1.70;;;17.50;61.00;;;;;;4973096;28;20105;-79
2022/05/13 11:18:41;;;;;;;5.95;1.50;;;17.60;60.80;;;;;;4972197;28;22948;-80
2022/05/13 11:21:29;;;;;;;7.32;1.35;;;17.60;60.60;;;;;;4968907;28;20050;-80
2022/05/13 11:27:37;;;;;;;6.05;1.40;;;17.70;60.40;;;;;;4979774;28;20109;-80
2022/05/13 11:30:31;;;;;;;7.32;1.50;;;17.80;60.10;;;;;;4973038;28;20429;-80
2022/05/13 11:33:11;;;;;;;6.78;1.55;;;17.90;60.00;;;;;;4971148;28;20051;-79
2022/05/13 11:35:54;;;;;;;13.25;1.45;;;17.90;59.80;;;;;;5027059;28;20045;-80
2022/05/13 11:38:44;;;;;;;4.90;1.15;;;17.90;59.60;;;;;;5043307;28;20044;-80
2022/05/13 11:41:19;;;;;;;7.15;1.70;;;18.00;59.40;;;;;;5048480;28;20048;-80
2022/05/13 11:44:07;;;;;;;5.85;1.50;;;18.00;59.30;;;;;;5038795;28;20141;-79
2022/05/13 11:47:19;;;;;;;6.32;1.10;;;18.00;59.10;;;;;;5074531;28;20052;-80
2022/05/13 11:49:47;;;;;;;7.57;1.52;;;18.10;58.90;;;;;;5076397;28;20048;-79
2022/05/13 11:55:47;;;;;;;5.88;1.45;;;18.10;58.60;;;;;;5074673;28;20599;-79
2022/05/13 11:58:43;;;;;;;6.22;1.40;;;18.20;58.50;;;;;;5034865;28;20117;-80
2022/05/13 12:01:10;;;;;;;5.00;1.20;;;18.20;58.40;;;;;;4978916;28;20054;-79
2022/05/13 12:03:39;;;;;;;5.82;1.42;;;18.30;58.40;;;;;;4984199;28;20129;-79
2022/05/13 12:06:11;;;;;;;6.03;1.25;;;18.30;58.30;;;;;;4974584;28;20046;-79
2022/05/13 12:08:45;;;;;;;4.07;1.23;;;18.30;58.10;;;;;;4972590;28;20047;-80
2022/05/13 12:11:40;;;;;;;11.38;1.50;;;18.40;58.10;;;;;;4988572;28;20050;-80
2022/05/13 12:14:43;;;;;;;6.88;1.67;;;18.40;57.90;;;;;;4902206;29;20048;-79
2022/05/13 12:17:28;;;;;;;6.75;1.27;;;18.50;57.90;;;;;;4911821;29;20643;-80
2022/05/13 12:20:09;;;;;;;9.55;1.50;;;18.50;57.80;;;;;;4900102;29;20132;-80
2022/05/13 12:22:52;;;;;;;4.88;1.27;;;18.60;57.70;;;;;;4899572;29;20049;-80
2022/05/13 12:25:34;;;;;;;6.18;1.27;;;18.60;57.60;;;;;;4899694;29;20512;-79
2022/05/13 12:28:11;;;;;;;5.07;1.52;;;18.70;57.40;;;;;;4899084;29;20397;-80
2022/05/13 12:30:45;;;;;;;6.38;1.27;;;18.80;57.20;;;;;;4899500;29;20092;-80
2022/05/13 12:33:23;;;;;;;6.75;1.42;;;18.90;57.00;;;;;;4910218;29;20067;-80
2022/05/13 12:39:14;;;;;;;3.65;1.20;;;19.00;56.60;;;;;;4966841;28;20070;-80
2022/05/13 12:41:44;;;;;;;4.50;1.20;;;19.10;56.30;;;;;;4990644;28;20594;-80
2022/05/13 12:44:15;;;;;;;5.40;1.58;;;19.20;56.10;;;;;;5007529;28;20053;-80
2022/05/13 12:46:47;;;;;;;8.77;1.55;;;19.30;56.00;;;;;;4996206;28;20109;-80
2022/05/13 12:49:47;;;;;;;5.18;1.17;;;19.30;55.80;;;;;;4993586;28;20101;-80
2022/05/13 12:52:44;;;;;;;5.63;1.30;;;19.40;55.50;;;;;;5073320;28;20572;-80
2022/05/13 12:55:29;;;;;;;7.00;1.42;;;19.50;55.30;;;;;;5066621;28;20525;-79
2022/05/13 12:58:02;;;;;;;8.23;1.83;;;19.60;55.10;;;;;;5075101;28;20082;-80
2022/05/13 13:00:36;;;;;;;5.85;1.20;;;19.60;54.90;;;;;;5073517;28;20044;-80
2022/05/13 13:03:09;;;;;;;4.30;1.17;;;19.70;54.60;;;;;;5071787;28;20049;-79
2022/05/13 13:05:40;;;;;;;4.72;1.17;;;19.80;54.40;;;;;;5070931;28;20490;-80
2022/05/13 13:08:26;;;;;;;5.63;1.20;;;19.80;54.30;;;;;;5077326;28;20101;-79
2022/05/13 13:11:04;;;;;;;6.05;1.45;;;19.90;54.00;;;;;;5075426;28;20094;-80
2022/05/13 13:13:40;;;;;;;4.22;1.10;;;19.90;53.80;;;;;;5073180;28;20044;-79
2022/05/13 13:16:21;;;;;;;4.85;1.55;;;20.00;53.60;;;;;;5076756;28;20045;-80
2022/05/13 13:19:11;;;;;;;6.22;1.20;;;20.00;53.40;;;;;;5073201;28;20056;-80
2022/05/13 13:21:40;;;;;;;6.00;1.20;;;20.10;53.20;;;;;;5073076;28;20438;-80
2022/05/13 13:24:33;;;;;;;4.22;1.40;;;20.20;53.10;;;;;;5071936;28;20044;-80
2022/05/13 13:27:00;;;;;;;5.47;1.38;;;20.20;52.90;;;;;;5056897;28;20049;-80
2022/05/13 13:29:28;;;;;;;6.68;1.20;;;20.20;52.80;;;;;;5073235;28;20465;-80
2022/05/13 13:32:00;;;;;;;6.15;1.30;;;20.30;52.70;;;;;;5074819;28;20086;-80
2022/05/13 13:34:34;;;;;;;4.57;1.17;;;20.40;52.60;;;;;;5072490;28;20052;-80
2022/05/13 13:37:09;;;;;;;5.57;1.30;;;20.40;52.50;;;;;;5073155;28;20118;-80
2022/05/13 13:39:54;;;;;;;3.90;1.00;;;20.40;52.40;;;;;;5072647;28;20047;-79
2022/05/13 13:42:22;;;;;;;6.25;1.50;;;20.50;52.20;;;;;;5072611;28;20185;-80
2022/05/13 13:45:05;;;;;;;5.47;1.20;;;20.50;52.10;;;;;;5069128;28;20057;-80
2022/05/13 13:47:39;;;;;;;4.38;0.90;;;20.60;52.00;;;;;;5071071;28;20101;-80
2022/05/13 13:50:10;;;;;;;4.63;1.23;;;20.60;51.80;;;;;;5076371;28;20049;-80
2022/05/13 13:52:41;;;;;;;4.68;1.10;;;20.60;51.80;;;;;;5072658;28;20052;-80
2022/05/13 13:55:14;;;;;;;5.25;1.30;;;20.70;51.70;;;;;;5073863;28;20052;-80
2022/05/13 13:58:20;;;;;;;5.32;1.20;;;20.70;51.70;;;;;;5072824;28;20100;-80
2022/05/13 14:00:48;;;;;;;4.45;1.13;;;20.80;51.60;;;;;;5072122;28;20044;-80